Stargard Szczecinski, Poland
Current Conditions -  °F | °C
As of 4:00 AM on Saturday 20 Dec 2014 (Local Time) from EPSC Reporting Station
Broken Clouds Broken Clouds  
Wind Chill: 33°   Ceiling: 2300
Heat Index: 41°   Visibility: 6mi
Dew Point: 36°   Wind: 15mph
Humidity: 81%   Direction: 250°WSW
Pressure: 29.74"   Gusts: NA
Location:  53.34°N, 15.02°E
Report Text: EPSC 200200Z 25013KT 9999 BKN023 05/02 Q1007
Loading
Personal Weather Stations






























Interactive Weather Map New forecast layout! Learn more

10-Day Weather Forecast

Advertisements
Track Severe Weather on mobile